Time;durP1;ratioP1;P1;durP2;ratioP2;P2;SDS_P1;SDS_P2;PMS_P1;PMS_P2;Temp;Humidity;BMP_temperature;BMP_pressure;BME280_temperature;BME280_humidity;BME280_pressure;Samples;Min_cycle;Max_cycle;Signal;HPM_P1;HPM_P2
2022/02/02 00:00:38;;;;;;;14.63;10.07;;;;;;;-3.24;76.76;99475.47;5076856;28;20047;-63
2022/02/02 00:03:10;;;;;;;15.68;10.85;;;;;;;-3.21;77.05;99474.41;5074506;28;20130;-64
2022/02/02 00:08:22;;;;;;;15.48;10.75;;;;;;;-3.48;76.87;99433.75;5074249;28;20504;-64
2022/02/02 00:19:02;;;;;;;17.95;11.38;;;;;;;-3.40;77.80;99469.69;5056156;28;20131;-63
2022/02/02 00:24:03;;;;;;;16.80;10.18;;;;;;;-3.38;76.77;99477.38;5073748;28;20040;-64
2022/02/02 00:26:37;;;;;;;15.70;9.95;;;;;;;-3.47;77.84;99474.47;5074235;28;20041;-65
2022/02/02 00:29:10;;;;;;;15.43;9.98;;;;;;;-3.38;77.89;99482.59;5074941;28;20048;-65
2022/02/02 00:31:41;;;;;;;15.85;9.18;;;;;;;-3.33;77.45;99481.31;5055806;28;20045;-64
2022/02/02 00:34:12;;;;;;;16.35;9.57;;;;;;;-3.25;77.68;99480.78;5073768;28;20495;-65
2022/02/02 00:36:47;;;;;;;15.10;9.32;;;;;;;-3.67;77.39;99424.72;5075968;28;20044;-63
2022/02/02 00:39:12;;;;;;;17.38;9.40;;;;;;;-3.25;76.97;99478.19;5079267;28;20036;-64
2022/02/02 00:41:38;;;;;;;15.37;9.50;;;;;;;-3.32;77.24;99461.31;5074128;28;20163;-66
2022/02/02 00:44:04;;;;;;;15.57;9.27;;;;;;;-3.22;77.05;99467.53;5057019;28;20043;-64
2022/02/02 00:46:30;;;;;;;13.57;9.83;;;;;;;-3.12;76.92;99477.22;5077931;28;20037;-65
2022/02/02 00:49:01;;;;;;;16.60;10.00;;;;;;;-3.19;77.14;99475.16;5077174;28;20051;-63
2022/02/02 00:51:36;;;;;;;15.07;9.10;;;;;;;-3.17;76.68;99481.94;5076431;28;20040;-65
2022/02/02 00:54:03;;;;;;;17.50;10.55;;;;;;;-3.17;76.84;99481.94;5044607;28;20028;-62
2022/02/02 00:56:29;;;;;;;16.83;11.23;;;;;;;-3.23;77.15;99481.50;5078460;28;20070;-62
2022/02/02 00:58:54;;;;;;;20.40;10.00;;;;;;;-3.26;77.40;99490.38;5073356;28;20492;-65
2022/02/02 01:01:20;;;;;;;16.47;10.37;;;;;;;-3.18;77.36;99488.09;5072422;28;20479;-64
2022/02/02 01:03:46;;;;;;;17.00;9.73;;;;;;;-3.06;77.39;99499.41;5072632;28;20040;-64
2022/02/02 01:06:16;;;;;;;17.13;10.33;;;;;;;-3.23;77.08;99479.72;5055031;28;20546;-61
2022/02/02 01:29:46;;;;;;;20.90;11.30;;;;;;;-3.37;78.26;99492.06;5071996;28;20036;-62
2022/02/02 01:32:12;;;;;;;17.30;10.73;;;;;;;-3.27;77.33;99500.88;5072080;28;20089;-63
2022/02/02 01:34:37;;;;;;;19.03;10.77;;;;;;;-3.30;76.70;99485.47;5071880;28;20266;-64
2022/02/02 01:37:03;;;;;;;16.50;10.13;;;;;;;-3.07;76.94;99502.13;5072181;28;20039;-62
2022/02/02 01:39:30;;;;;;;19.23;11.53;;;;;;;-3.19;76.37;99485.56;5072170;28;20041;-64
2022/02/02 01:41:58;;;;;;;17.42;10.73;;;;;;;-3.08;75.93;99506.50;5054284;28;20044;-63
2022/02/02 01:46:55;;;;;;;17.77;10.73;;;;;;;-3.32;76.46;99462.16;5073143;28;20487;-62
2022/02/02 01:59:46;;;;;;;13.82;9.52;;;;;;;-3.22;74.97;99524.84;5073114;28;20439;-63
2022/02/02 02:02:11;;;;;;;14.27;9.55;;;;;;;-3.22;75.23;99524.84;5072444;28;20063;-64
2022/02/02 02:04:38;;;;;;;14.37;8.17;;;;;;;-3.21;75.44;99524.72;5072375;28;20526;-65
2022/02/02 02:07:06;;;;;;;14.18;8.35;;;;;;;-3.35;75.68;99513.59;5072443;28;20144;-61
2022/02/02 02:09:32;;;;;;;12.52;8.40;;;;;;;-3.30;75.45;99527.13;5072139;28;20040;-62
2022/02/02 02:12:03;;;;;;;12.30;8.25;;;;;;;-3.35;75.82;99521.41;5072414;28;20083;-64
2022/02/02 02:17:01;;;;;;;15.60;8.73;;;;;;;-3.35;75.69;99524.03;5071932;28;20491;-61
2022/02/02 02:19:26;;;;;;;14.27;8.93;;;;;;;-3.40;75.45;99515.69;5071812;28;20037;-62
2022/02/02 02:21:54;;;;;;;15.70;10.03;;;;;;;-3.54;75.87;99499.22;5072305;28;20394;-65
2022/02/02 02:24:19;;;;;;;17.48;9.18;;;;;;;-3.29;75.31;99534.84;5071456;28;20135;-66
2022/02/02 02:27:13;;;;;;;16.42;9.68;;;;;;;-3.18;75.86;99536.69;5071965;28;20091;-64
2022/02/02 02:57:03;;;;;;;18.05;10.07;;;;;;;-3.05;75.89;99555.75;5071089;28;20139;-63
2022/02/02 02:59:45;;;;;;;16.17;10.13;;;;;;;-3.14;76.00;99546.81;5071114;28;20113;-62
2022/02/02 03:30:31;;;;;;;16.13;9.23;;;;;;;-3.29;77.89;99596.50;5056757;28;20039;-64
2022/02/02 03:57:17;;;;;;;18.10;9.82;;;;;;;-3.69;77.12;99612.16;5074016;28;20033;-65
2022/02/02 04:07:22;;;;;;;14.40;7.80;;;;;;;-4.03;75.68;99594.50;5073781;28;20056;-61
2022/02/02 04:09:49;;;;;;;12.15;7.53;;;;;;;-4.08;76.57;99612.97;5073776;28;20498;-64
2022/02/02 04:59:34;;;;;;;14.52;8.80;;;;;;;-4.19;76.61;99670.84;5058154;28;20089;-67
2022/02/02 05:07:45;;;;;;;17.33;9.27;;;;;;;-4.29;77.00;99676.72;5058382;28;20092;-63
2022/02/02 05:10:40;;;;;;;14.75;9.15;;;;;;;-4.24;76.24;99679.88;5072823;28;20040;-66
2022/02/02 05:16:18;;;;;;;13.88;8.15;;;;;;;-4.25;76.32;99671.25;5073963;28;20047;-66
2022/02/02 05:53:21;;;;;;;13.57;8.60;;;;;;;-4.25;75.61;99693.81;5071255;28;20040;-67
2022/02/02 05:55:48;;;;;;;13.85;9.27;;;;;;;-4.31;75.15;99679.44;5071722;28;20491;-64
2022/02/02 05:58:14;;;;;;;11.90;7.90;;;;;;;-4.46;75.24;99659.56;5072134;28;20043;-65
2022/02/02 06:00:40;;;;;;;13.88;8.80;;;;;;;-4.19;75.62;99701.22;5072986;28;20028;-64
2022/02/02 06:03:14;;;;;;;15.70;8.93;;;;;;;-4.22;75.34;99704.84;5072657;28;20102;-70
2022/02/02 06:05:41;;;;;;;13.00;8.60;;;;;;;-4.16;75.50;99712.25;5071725;28;20032;-65
2022/02/02 06:08:13;;;;;;;14.83;8.57;;;;;;;-4.15;75.53;99705.28;5016688;28;1547873;-73
2022/02/02 06:10:41;;;;;;;15.23;8.20;;;;;;;-4.14;75.16;99709.56;5071680;28;20495;-61
2022/02/02 06:13:07;;;;;;;16.92;10.35;;;;;;;-4.24;75.37;99696.31;5071444;28;20041;-61
2022/02/02 06:15:35;;;;;;;13.93;8.77;;;;;;;-4.11;74.96;99714.56;5071224;28;20130;-63
2022/02/02 06:18:02;;;;;;;12.90;8.63;;;;;;;-4.01;75.01;99722.66;5071185;28;20081;-63
2022/02/02 06:20:28;;;;;;;11.07;8.48;;;;;;;-3.98;74.60;99732.84;5072914;28;20037;-62
2022/02/02 06:23:00;;;;;;;13.95;9.38;;;;;;;-4.13;74.04;99712.06;5072185;28;20036;-59
2022/02/02 06:25:36;;;;;;;16.45;9.73;;;;;;;-4.03;74.57;99721.91;5072118;28;20043;-63
2022/02/02 06:28:05;;;;;;;12.95;9.27;;;;;;;-4.11;74.50;99709.38;5071584;28;20501;-63
2022/02/02 06:30:34;;;;;;;13.20;8.65;;;;;;;-4.34;73.24;99681.34;5072380;28;20463;-63
2022/02/02 06:33:06;;;;;;;14.55;10.88;;;;;;;-4.20;74.53;99718.59;5071113;28;20037;-62
2022/02/02 06:35:32;;;;;;;13.63;8.70;;;;;;;-4.11;74.75;99723.19;5071413;28;20112;-63
2022/02/02 06:37:58;;;;;;;15.00;8.77;;;;;;;-4.16;74.14;99712.25;5071046;28;20129;-64
2022/02/02 06:40:25;;;;;;;13.25;9.77;;;;;;;-4.11;74.33;99718.00;5071273;28;20032;-65
2022/02/02 06:42:51;;;;;;;13.85;8.48;;;;;;;-4.07;74.41;99729.88;5053371;28;20036;-63
2022/02/02 06:45:17;;;;;;;18.30;10.27;;;;;;;-4.03;73.91;99722.75;5071463;28;20036;-68
2022/02/02 06:47:45;;;;;;;12.63;7.90;;;;;;;-3.93;73.84;99730.81;5072858;28;20032;-64
2022/02/02 06:52:43;;;;;;;13.88;8.50;;;;;;;-3.87;73.65;99743.41;5075201;28;20036;-63
2022/02/02 06:55:24;;;;;;;13.48;8.75;;;;;;;-3.91;73.81;99744.53;5075840;28;20044;-64
2022/02/02 06:58:08;;;;;;;15.43;9.77;;;;;;;-4.05;73.70;99721.97;5074923;28;20127;-65
2022/02/02 07:00:50;;;;;;;16.60;9.85;;;;;;;-4.15;73.94;99711.31;5074645;28;20040;-65
2022/02/02 07:03:37;;;;;;;13.25;8.82;;;;;;;-3.85;73.58;99754.56;5074746;28;20399;-66
2022/02/02 07:06:35;;;;;;;14.52;9.40;;;;;;;-3.76;73.39;99759.16;5074542;28;20468;-71
2022/02/02 07:11:44;;;;;;;12.00;8.65;;;;;;;-3.85;72.59;99759.75;5078808;28;20472;-68
2022/02/02 07:14:42;;;;;;;15.05;9.38;;;;;;;-3.80;72.45;99770.69;5078173;28;20040;-63
2022/02/02 07:25:29;;;;;;;12.07;10.00;;;;;;;-4.24;73.02;99800.28;5074556;28;20036;-63
2022/02/02 07:27:36;;;;;;;13.48;8.70;;;;;;;-4.28;74.44;99809.22;5042168;28;20114;-69
2022/02/02 07:30:29;;;;;;;12.93;8.75;;;;;;;-4.27;73.82;99804.84;5074384;28;20032;-67
2022/02/02 07:33:05;;;;;;;12.27;8.48;;;;;;;-4.29;73.86;99802.34;5073216;28;20045;-69
2022/02/02 07:35:47;;;;;;;12.48;8.48;;;;;;;-4.35;73.54;99794.88;5074308;28;20136;-69
2022/02/02 07:38:15;;;;;;;12.75;8.68;;;;;;;-4.18;73.60;99817.28;5056195;28;20090;-68
2022/02/02 07:40:45;;;;;;;15.48;8.10;;;;;;;-4.25;73.26;99806.41;5073675;28;20036;-70
2022/02/02 07:43:25;;;;;;;14.27;9.80;;;;;;;-4.20;72.27;99822.56;5074037;28;20498;-65
2022/02/02 07:46:19;;;;;;;11.80;8.15;;;;;;;-4.33;73.45;99826.84;5074138;28;20032;-65
2022/02/02 07:48:47;;;;;;;12.25;8.13;;;;;;;-4.36;73.05;99821.81;5054090;28;20037;-66
2022/02/02 07:51:14;;;;;;;13.98;9.05;;;;;;;-4.34;73.39;99829.50;5074289;28;20033;-68
2022/02/02 07:53:47;;;;;;;14.00;9.32;;;;;;;-4.44;72.93;99818.84;5074270;28;20043;-69
2022/02/02 07:56:16;;;;;;;11.20;8.55;;;;;;;-4.27;72.96;99836.03;5039348;28;20032;-65
2022/02/02 07:58:47;;;;;;;14.25;9.07;;;;;;;-4.18;72.22;99833.72;5074139;28;20032;-69
2022/02/02 08:01:15;;;;;;;15.55;9.95;;;;;;;-4.18;72.32;99831.13;5056082;28;20411;-68
2022/02/02 08:03:44;;;;;;;13.45;9.00;;;;;;;-4.11;72.52;99844.56;5074718;28;20024;-70
2022/02/02 08:06:11;;;;;;;14.77;8.98;;;;;;;-4.04;71.55;99852.88;5056202;28;20130;-69
2022/02/02 08:08:40;;;;;;;14.75;9.65;;;;;;;-4.03;71.80;99859.75;5073929;28;20048;-68
2022/02/02 08:11:09;;;;;;;13.50;10.30;;;;;;;-3.99;71.09;99869.88;5073901;28;20048;-68
2022/02/02 08:13:44;;;;;;;15.90;9.90;;;;;;;-4.01;71.44;99868.28;5073371;28;20050;-66
2022/02/02 08:16:14;;;;;;;14.88;9.40;;;;;;;-4.00;71.90;99869.97;5055527;28;20032;-66
2022/02/02 08:18:44;;;;;;;15.50;10.10;;;;;;;-4.01;71.71;99878.69;5038978;28;20040;-65
2022/02/02 08:21:10;;;;;;;18.65;11.07;;;;;;;-4.03;72.67;99883.16;5073422;28;20043;-64
2022/02/02 08:23:36;;;;;;;18.58;9.93;;;;;;;-4.11;72.75;99881.81;5073737;28;20075;-66
2022/02/02 08:26:09;;;;;;;16.33;12.07;;;;;;;-4.12;72.19;99885.34;5038562;28;20415;-63
2022/02/02 08:28:38;;;;;;;17.33;10.05;;;;;;;-4.03;72.39;99876.19;5055471;28;20122;-68
2022/02/02 08:31:04;;;;;;;16.98;10.52;;;;;;;-3.96;72.24;99874.03;5074628;28;20526;-67
2022/02/02 08:33:34;;;;;;;13.30;9.40;;;;;;;-3.82;71.99;99889.63;5073095;28;20055;-64
2022/02/02 08:36:03;;;;;;;15.98;10.85;;;;;;;-3.90;71.19;99882.31;5073184;28;20032;-68
2022/02/02 08:41:03;;;;;;;15.30;9.93;;;;;;;-3.90;71.31;99877.09;5054976;28;20036;-68
2022/02/02 08:43:38;;;;;;;13.55;8.70;;;;;;;-3.87;70.98;99887.31;5073217;28;20040;-65
2022/02/02 08:46:09;;;;;;;17.40;8.27;;;;;;;-3.82;70.90;99887.88;5054967;28;20050;-70
2022/02/02 08:48:37;;;;;;;12.40;8.25;;;;;;;-3.88;70.40;99890.00;5072618;28;20411;-62
2022/02/02 08:51:07;;;;;;;17.00;10.27;;;;;;;-3.84;70.78;99912.31;5072934;28;20128;-64
2022/02/02 08:53:52;;;;;;;14.48;10.07;;;;;;;-3.75;71.76;99909.19;5054983;28;20038;-67
2022/02/02 08:59:09;;;;;;;11.57;7.72;;;;;;;-3.77;70.79;99904.03;5072782;28;20040;-62
2022/02/02 09:01:36;;;;;;;13.73;9.48;;;;;;;-3.86;69.80;99889.00;5072821;28;20055;-64
2022/02/02 09:06:48;;;;;;;14.90;10.57;;;;;;;-3.81;70.69;99917.31;5072131;28;20052;-65
2022/02/02 09:09:22;;;;;;;17.67;10.55;;;;;;;-3.75;71.04;99923.03;5054695;28;20040;-63
2022/02/02 09:20:21;;;;;;;17.35;10.82;;;;;;;-3.61;70.81;99934.34;5072616;28;20048;-65
2022/02/02 09:25:16;;;;;;;13.07;8.77;;;;;;;-3.58;70.14;99939.34;5072379;28;20132;-66
2022/02/02 09:35:41;;;;;;;16.35;9.48;;;;;;;-3.77;68.74;99918.81;5072327;28;20070;-68
2022/02/02 09:38:06;;;;;;;13.43;10.13;;;;;;;-3.69;69.17;99936.59;5071939;28;20071;-69
2022/02/02 09:43:18;;;;;;;14.55;8.68;;;;;;;-3.61;69.56;99961.22;5072159;28;20403;-71
2022/02/02 09:45:45;;;;;;;15.90;9.13;;;;;;;-3.54;69.72;99964.28;5071990;28;20156;-72
2022/02/02 09:48:14;;;;;;;14.88;10.82;;;;;;;-3.69;69.45;99962.59;5053642;28;20063;-71
2022/02/02 09:50:48;;;;;;;13.85;8.52;;;;;;;-3.79;69.89;99968.34;5071629;28;20067;-65
2022/02/02 09:53:21;;;;;;;15.63;9.18;;;;;;;-3.86;70.02;99974.00;5054050;28;20024;-64
2022/02/02 09:56:17;;;;;;;17.00;10.10;;;;;;;-3.82;70.07;99970.28;5072093;28;20036;-63
2022/02/02 10:01:44;;;;;;;13.63;9.30;;;;;;;-3.66;69.63;99989.28;5071970;28;20066;-68
2022/02/02 10:06:54;;;;;;;12.50;8.98;;;;;;;-3.44;68.70;99989.66;5072139;28;20040;-65
2022/02/02 10:10:18;;;;;;;14.57;10.52;;;;;;;-3.38;68.54;99992.81;5055318;28;20044;-66
2022/02/02 10:13:06;;;;;;;14.13;10.18;;;;;;;-3.76;69.35;99951.69;5058425;28;20048;-66
2022/02/02 10:15:19;;;;;;;22.73;13.48;;;;;;;-3.62;70.14;99984.72;5060548;28;20059;-69
2022/02/02 10:17:45;;;;;;;18.52;10.77;;;;;;;-3.66;69.56;99973.66;5071632;28;20077;-73
2022/02/02 10:20:23;;;;;;;14.73;9.43;;;;;;;-3.62;69.53;99969.94;5071555;28;20032;-71
2022/02/02 10:22:53;;;;;;;14.32;9.18;;;;;;;-3.40;69.08;99986.88;5073088;28;20135;-70
2022/02/02 10:25:30;;;;;;;12.23;9.15;;;;;;;-3.44;67.98;99984.47;5075991;28;20495;-70
2022/02/02 10:28:29;;;;;;;12.98;9.27;;;;;;;-3.55;68.22;99993.81;5075868;28;20028;-70
2022/02/02 10:31:00;;;;;;;;;;;;;;;-3.58;69.04;100001.81;5060999;28;20032;-74
2022/02/02 10:33:28;;;;;;;14.63;8.98;;;;;;;-3.63;68.95;99999.50;5076191;28;20409;-70
2022/02/02 10:36:08;;;;;;;19.05;10.68;;;;;;;-3.73;68.30;99981.94;5075440;28;20041;-72
2022/02/02 10:38:50;;;;;;;17.52;10.20;;;;;;;-3.75;69.07;99995.03;5057507;28;20036;-70
2022/02/02 10:41:30;;;;;;;16.63;10.77;;;;;;;-3.81;69.67;100005.78;5075978;28;20044;-71
2022/02/02 10:44:00;;;;;;;17.30;11.20;;;;;;;-3.88;69.16;100001.88;5075289;28;20415;-72
2022/02/02 10:46:50;;;;;;;17.13;10.90;;;;;;;-3.77;70.40;100017.69;5074816;28;20093;-72
2022/02/02 10:49:29;;;;;;;16.30;10.32;;;;;;;-3.67;69.09;99997.19;5057699;28;20043;-71
2022/02/02 10:52:09;;;;;;;16.17;10.60;;;;;;;-3.36;68.10;100011.78;5075183;28;20121;-70
2022/02/02 10:57:28;;;;;;;17.20;10.40;;;;;;;-3.26;68.00;100018.94;5077948;28;20036;-74
2022/02/02 11:08:00;;;;;;;16.20;10.07;;;;;;;-3.21;67.56;100022.09;5073790;28;20048;-65
2022/02/02 11:10:51;;;;;;;16.70;11.30;;;;;;;-3.99;68.25;99898.47;5072883;28;20102;-65
2022/02/02 11:13:17;;;;;;;18.23;11.80;;;;;;;-3.40;68.22;100007.69;5074723;28;20105;-65
2022/02/02 11:15:51;;;;;;;18.40;10.77;;;;;;;-3.30;67.93;100027.03;5074242;28;20551;-66
2022/02/02 11:18:26;;;;;;;14.52;9.75;;;;;;;-3.34;68.78;100033.38;5074617;28;20036;-67
2022/02/02 11:20:52;;;;;;;20.58;11.82;;;;;;;-3.29;68.33;100031.31;5075724;28;20126;-67
2022/02/02 11:23:19;;;;;;;17.07;10.67;;;;;;;-3.21;67.71;100034.28;5076559;28;20140;-68
2022/02/02 11:25:54;;;;;;;18.30;11.40;;;;;;;-3.37;67.35;100042.19;5058930;28;20359;-67
2022/02/02 11:28:30;;;;;;;18.42;11.23;;;;;;;-3.66;68.39;100043.91;5056963;28;20044;-67
2022/02/02 11:31:22;;;;;;;19.02;10.65;;;;;;;-3.62;69.67;100045.41;5074350;28;20044;-67
2022/02/02 11:33:59;;;;;;;19.55;11.95;;;;;;;-3.86;68.57;99981.81;5070581;28;20037;-70
2022/02/02 11:36:36;;;;;;;16.20;9.93;;;;;;;-3.34;67.96;100052.44;5074141;28;20040;-66
2022/02/02 11:39:09;;;;;;;18.05;11.25;;;;;;;-3.46;67.73;100030.56;5074145;28;20040;-67
2022/02/02 11:49:41;;;;;;;22.17;11.77;;;;;;;-3.25;68.09;100049.25;5073632;28;20072;-67
2022/02/02 11:52:34;;;;;;;15.63;10.00;;;;;;;-3.17;67.14;100069.66;5074083;28;20032;-66
2022/02/02 11:55:02;;;;;;;17.30;10.32;;;;;;;-3.33;67.50;100066.28;5055828;28;20046;-66
2022/02/02 11:57:48;;;;;;;;;;;;;;;-3.31;67.23;100074.84;5074313;28;20052;-68
2022/02/02 12:00:28;;;;;;;14.25;10.43;;;;;;;-3.53;67.69;100057.03;5073625;28;19945;-68
2022/02/02 13:00:22;;;;;;;19.55;11.90;;;;;;;-3.80;70.63;100116.72;5072661;28;20040;-64
2022/02/02 13:02:49;;;;;;;23.95;12.45;;;;;;;-3.61;69.61;100140.78;5054694;28;20044;-67
2022/02/02 13:05:20;;;;;;;22.58;13.65;;;;;;;-3.65;69.56;100136.69;5054944;28;20153;-66
2022/02/02 13:07:47;;;;;;;26.95;11.68;;;;;;;-3.66;69.96;100145.41;5051415;28;20068;-66
2022/02/02 13:10:20;;;;;;;19.00;12.05;;;;;;;-3.66;69.57;100162.78;5051968;28;20037;-69
2022/02/02 13:12:53;;;;;;;21.08;11.20;;;;;;;-3.96;69.73;100116.78;5034550;28;20110;-65
2022/02/02 13:23:38;;;;;;;16.33;8.38;;;;;;;-3.81;70.79;100187.91;5052123;28;20048;-62
2022/02/02 13:26:10;;;;;;;17.40;10.23;;;;;;;-3.85;70.59;100182.03;5051995;28;20041;-66
2022/02/02 13:28:48;;;;;;;24.08;12.15;;;;;;;-3.91;70.79;100174.56;5034301;28;20171;-65
2022/02/02 13:32:02;;;;;;;14.57;9.63;;;;;;;-3.85;70.64;100186.41;5052061;28;20033;-69
2022/02/02 13:48:08;;;;;;;25.70;12.13;;;;;;;-3.85;70.56;100205.44;5052315;28;20098;-69
2022/02/02 14:33:31;;;;;;;17.27;12.77;;;;;;;-3.68;69.83;100238.34;5050362;28;20056;-69
2022/02/02 14:36:02;;;;;;;18.83;11.30;;;;;;;-3.68;69.70;100253.97;5050310;28;20044;-73
2022/02/02 14:44:19;;;;;;;15.27;10.77;;;;;;;-3.74;70.77;100259.50;5051659;28;20394;-75
2022/02/02 14:46:38;;;;;;;19.58;11.10;;;;;;;-3.67;70.23;100263.44;5048930;28;20052;-73
2022/02/02 14:49:29;;;;;;;19.63;11.15;;;;;;;-3.52;70.10;100269.56;5051421;28;20031;-70
2022/02/02 14:54:48;;;;;;;20.30;11.90;;;;;;;-3.51;70.11;100272.06;5050847;28;20040;-70
2022/02/02 15:06:26;;;;;;;20.88;13.02;;;;;;;-3.43;70.36;100284.69;5049584;28;20045;-65
2022/02/02 15:30:08;;;;;;;16.58;10.20;;;;;;;-3.93;71.71;100319.50;5035992;28;20040;-66
2022/02/02 15:32:36;;;;;;;21.35;12.40;;;;;;;-4.03;71.38;100310.50;5054597;28;20033;-78
2022/02/02 15:35:04;;;;;;;21.02;12.43;;;;;;;-4.02;71.43;100317.41;5054834;28;20036;-69
2022/02/02 15:37:39;;;;;;;22.08;12.07;;;;;;;-4.00;71.26;100323.34;5055090;28;20029;-66
2022/02/02 15:58:42;;;;;;;15.65;10.60;;;;;;;-4.12;71.67;100324.81;5053801;28;20087;-64
2022/02/02 16:03:38;;;;;;;18.33;11.50;;;;;;;-4.03;71.84;100359.09;5053234;28;20041;-65
2022/02/02 16:06:12;;;;;;;;;;;;;;;-4.03;72.66;100366.91;5053994;28;20037;-62
2022/02/02 16:08:44;;;;;;;19.35;12.95;;;;;;;-4.11;72.06;100368.09;5053269;28;20273;-62
2022/02/02 16:13:49;;;;;;;15.50;9.80;;;;;;;-4.22;72.88;100359.19;5053005;28;20044;-63
2022/02/02 16:37:13;;;;;;;16.20;11.37;;;;;;;-4.02;71.46;100407.59;5017242;28;20083;-65
2022/02/02 16:39:50;;;;;;;14.10;9.85;;;;;;;-3.90;71.04;100414.75;5017019;28;20099;-63
2022/02/02 16:45:05;;;;;;;16.38;11.07;;;;;;;-3.78;70.72;100422.75;5033186;28;20045;-69
2022/02/02 16:47:30;;;;;;;18.98;10.88;;;;;;;-3.93;70.94;100410.53;5033466;28;20033;-69
2022/02/02 16:49:56;;;;;;;16.37;11.00;;;;;;;-4.20;70.63;100378.16;5015272;28;20040;-69
2022/02/02 16:52:25;;;;;;;19.27;11.57;;;;;;;-4.14;70.82;100407.28;5032770;28;20029;-70
2022/02/02 16:54:51;;;;;;;17.30;11.65;;;;;;;-4.21;70.98;100421.50;5032851;28;20033;-70
2022/02/02 17:35:36;;;;;;;14.20;9.65;;;;;;;-3.94;69.76;100426.22;5072680;28;20033;-68
2022/02/02 17:38:20;;;;;;;18.48;11.98;;;;;;;-3.95;69.20;100440.16;5072660;28;20067;-69
2022/02/02 18:17:01;;;;;;;16.85;10.25;;;;;;;-3.80;69.08;100466.22;5031299;28;20033;-69
2022/02/02 18:19:03;;;;;;;17.08;10.90;;;;;;;-4.01;68.99;100414.47;5030939;28;20037;-63
2022/02/02 18:21:30;;;;;;;14.50;8.88;;;;;;;-3.77;68.19;100449.59;5031517;28;20140;-65
2022/02/02 18:24:00;;;;;;;17.77;10.63;;;;;;;-3.76;67.92;100462.56;5031651;28;20462;-64
2022/02/02 18:29:17;;;;;;;15.35;10.45;;;;;;;-4.19;68.84;100474.28;5031358;28;20029;-64
2022/02/02 18:34:52;;;;;;;16.95;10.98;;;;;;;-4.31;69.50;100482.69;5031549;28;20404;-64
2022/02/02 18:48:31;;;;;;;21.90;12.77;;;;;;;-4.27;69.75;100483.38;5016805;28;20048;-63
2022/02/02 19:07:10;;;;;;;18.33;11.68;;;;;;;-4.03;68.52;100478.72;5034944;28;20048;-68
2022/02/02 20:06:37;;;;;;;19.98;12.38;;;;;;;-4.26;69.45;100535.31;5055637;28;20060;-66
2022/02/02 20:11:43;;;;;;;22.23;12.88;;;;;;;-4.30;70.84;100557.19;5064398;28;20420;-65
2022/02/02 20:14:11;;;;;;;18.25;12.30;;;;;;;-4.46;70.79;100548.41;5044715;28;20072;-65
2022/02/02 20:16:37;;;;;;;20.67;11.82;;;;;;;-4.58;70.19;100517.81;5036185;28;20025;-66
2022/02/02 20:19:06;;;;;;;24.30;12.60;;;;;;;-4.34;70.78;100555.63;5054070;28;20040;-67
2022/02/02 20:21:36;;;;;;;25.25;14.20;;;;;;;-4.35;70.17;100561.72;5053540;28;20033;-64
2022/02/02 20:24:05;;;;;;;21.23;13.80;;;;;;;-4.60;70.63;100523.09;5036846;28;20500;-66
2022/02/02 20:26:34;;;;;;;17.75;11.27;;;;;;;-4.35;69.92;100559.13;5055753;28;20044;-64
2022/02/02 20:29:01;;;;;;;16.35;10.32;;;;;;;-4.33;70.38;100566.88;5054026;28;20040;-66
2022/02/02 20:31:26;;;;;;;21.98;12.82;;;;;;;-4.35;70.55;100566.94;5053867;28;20036;-65
2022/02/02 20:33:52;;;;;;;21.17;12.43;;;;;;;-4.38;69.59;100561.88;5053924;28;20045;-64
2022/02/02 20:36:18;;;;;;;21.70;11.77;;;;;;;-4.43;70.72;100548.25;5053064;28;20033;-65
2022/02/02 20:38:43;;;;;;;17.63;12.83;;;;;;;-4.39;70.53;100536.81;5053367;28;20082;-63
2022/02/02 20:41:09;;;;;;;17.40;11.63;;;;;;;-4.31;69.88;100552.06;5053491;28;20040;-68
2022/02/02 20:44:01;;;;;;;16.87;12.83;;;;;;;-4.29;69.52;100558.88;5053139;28;20037;-66
2022/02/02 20:46:44;;;;;;;24.67;13.15;;;;;;;-4.21;70.10;100566.28;5052652;28;20501;-65
2022/02/02 21:00:21;;;;;;;16.15;12.25;;;;;;;-3.91;69.51;100570.00;5053303;28;20037;-66
2022/02/02 21:05:38;;;;;;;47.90;31.85;;;;;;;-4.12;70.44;100579.69;5052597;28;20068;-66
2022/02/02 21:08:23;;;;;;;20.73;12.43;;;;;;;-4.08;70.31;100591.63;5012374;28;20057;-64
2022/02/02 21:10:51;;;;;;;17.45;10.90;;;;;;;-4.17;70.61;100589.47;5033175;28;20046;-64
2022/02/02 21:16:01;;;;;;;18.10;12.00;;;;;;;-4.40;69.79;100568.91;5036097;28;20042;-62
2022/02/02 21:18:33;;;;;;;21.03;14.23;;;;;;;-4.24;70.39;100605.44;5036608;28;20091;-64
2022/02/02 21:21:37;;;;;;;26.92;17.55;;;;;;;-4.44;70.29;100582.97;5018351;28;20041;-68
2022/02/02 21:24:20;;;;;;;27.88;17.63;;;;;;;-4.39;71.33;100601.78;5032264;28;20128;-64
2022/02/02 21:27:05;;;;;;;17.45;11.80;;;;;;;-4.51;70.02;100594.56;5036342;28;20041;-64
2022/02/02 21:29:30;;;;;;;18.17;10.85;;;;;;;-4.66;70.62;100614.28;5034118;28;20073;-64
2022/02/02 21:31:56;;;;;;;20.13;12.80;;;;;;;-4.83;71.45;100616.84;5032726;28;20087;-62
2022/02/02 21:34:22;;;;;;;21.23;13.37;;;;;;;-4.88;72.10;100621.41;5032060;28;20117;-65
2022/02/02 21:36:48;;;;;;;20.35;12.57;;;;;;;-5.05;71.54;100603.94;5032116;28;20037;-63
2022/02/02 21:39:25;;;;;;;17.65;12.93;;;;;;;-5.10;71.71;100624.09;5032625;28;20041;-63
2022/02/02 21:41:52;;;;;;;27.25;17.98;;;;;;;-5.14;71.89;100618.19;5032276;28;20040;-64
2022/02/02 21:44:19;;;;;;;40.38;27.27;;;;;;;-5.06;71.22;100626.47;5032081;28;20523;-64
2022/02/02 21:46:45;;;;;;;51.03;35.60;;;;;;;-5.07;71.95;100639.53;5032326;28;20044;-63
2022/02/02 21:49:17;;;;;;;41.23;28.80;;;;;;;-5.03;72.31;100636.72;5031898;28;20041;-62
2022/02/02 21:54:25;;;;;;;25.05;15.57;;;;;;;-5.03;71.12;100643.69;5032014;28;20117;-63
2022/02/02 21:56:51;;;;;;;25.10;15.13;;;;;;;-4.97;71.62;100643.41;5032172;28;20029;-63
2022/02/02 21:59:17;;;;;;;23.27;14.47;;;;;;;-4.90;70.55;100647.44;5031925;28;20699;-62
2022/02/02 22:01:43;;;;;;;21.13;14.82;;;;;;;-4.93;71.02;100641.50;5031680;28;20037;-64
2022/02/02 22:04:09;;;;;;;23.57;15.50;;;;;;;-4.94;71.10;100648.47;5031865;28;20103;-64
2022/02/02 22:06:34;;;;;;;21.20;13.68;;;;;;;-4.93;70.84;100652.75;5031843;28;20400;-64
2022/02/02 22:11:51;;;;;;;21.45;13.82;;;;;;;-5.05;71.79;100668.88;5071937;28;20116;-65
2022/02/02 22:14:20;;;;;;;17.67;11.20;;;;;;;-5.08;71.62;100674.19;5054296;28;20162;-63
2022/02/02 22:16:48;;;;;;;22.02;12.35;;;;;;;-5.10;71.31;100652.66;5072164;28;20036;-62
2022/02/02 22:19:13;;;;;;;47.83;29.05;;;;;;;-5.01;71.31;100675.63;5075549;28;20032;-64
2022/02/02 22:21:39;;;;;;;49.00;30.93;;;;;;;-4.93;70.96;100680.47;5057971;28;20456;-64
2022/02/02 22:24:06;;;;;;;31.73;22.43;;;;;;;-4.89;71.44;100669.91;5076246;28;20036;-63
2022/02/02 22:26:34;;;;;;;34.60;23.90;;;;;;;-4.85;70.61;100670.63;5075740;28;20037;-64
2022/02/02 22:28:59;;;;;;;26.80;17.17;;;;;;;-4.91;70.58;100670.88;5076132;28;20036;-64
2022/02/02 22:31:25;;;;;;;28.70;19.80;;;;;;;-4.85;70.44;100666.25;5076136;28;20345;-63
2022/02/02 22:33:50;;;;;;;19.87;12.40;;;;;;;-4.97;70.68;100671.97;5076375;28;20032;-66
2022/02/02 22:36:18;;;;;;;20.30;13.80;;;;;;;-5.04;69.91;100693.94;5076097;28;20121;-64
2022/02/02 22:38:44;;;;;;;30.88;20.65;;;;;;;-5.10;71.42;100696.78;5075931;28;20463;-63
2022/02/02 22:41:11;;;;;;;21.15;14.10;;;;;;;-5.26;72.00;100683.59;5075690;28;20036;-64
2022/02/02 22:43:44;;;;;;;19.35;13.90;;;;;;;-5.30;71.29;100685.47;5075979;28;20097;-64
2022/02/02 22:46:09;;;;;;;18.65;12.07;;;;;;;-5.27;71.61;100694.88;5075936;28;20066;-62
2022/02/02 22:48:37;;;;;;;17.87;12.10;;;;;;;-5.39;71.61;100685.88;5075834;28;20483;-64
2022/02/02 22:51:02;;;;;;;17.90;10.77;;;;;;;-5.39;71.82;100670.31;5075587;28;20044;-62
2022/02/02 22:53:28;;;;;;;17.10;12.07;;;;;;;-5.31;71.57;100694.19;5075525;28;20066;-64
2022/02/02 22:56:19;;;;;;;17.58;13.20;;;;;;;-5.32;71.29;100682.09;5061481;28;20568;-64
2022/02/02 22:58:48;;;;;;;22.90;14.50;;;;;;;-5.26;71.64;100680.16;5075691;28;20040;-64
2022/02/02 23:01:14;;;;;;;19.05;12.38;;;;;;;-5.10;70.94;100691.59;5075643;28;20510;-63
2022/02/02 23:03:40;;;;;;;17.42;10.65;;;;;;;-5.07;70.47;100704.44;5057494;28;20037;-65
2022/02/02 23:06:05;;;;;;;17.03;10.90;;;;;;;-5.16;70.84;100703.09;5057457;28;20042;-63
2022/02/02 23:08:33;;;;;;;19.67;11.83;;;;;;;-5.21;71.63;100688.59;5075109;28;20112;-65